6A1

Butler Municipal Airport

Butler, Georgia, USA
METAR K6A1 170415Z AUTO 28006KT 10SM 08/03 A3018 RMK AO2 T00770031
Observed Flight Rules
Nov-17 @ 04:15 UTC (33 minutes ago)
Wind Visibility
280° at 6 knots 10 miles
Temperatures Readings
Current 8°C / 46°F
Dewpoint 3°C / 37°F
Humidity 71%
Altimeter 30.18" Hg
Pressure 1022 hPa
Elevation 203
METAR K6A1 170415Z AUTO 28006KT 10SM 08/03 A3018 RMK AO2 T00770031
Observed Flight Rules
Nov-17 @ 04:15 UTC
(33 minutes ago)
Wind Visibility
280° at 6 knots 10 miles
Temperature Dewpoint
8°C / 46°F 3°C / 37°F
Humidity Altimeter Pressure
71% 30.18" Hg 1022 hPa